createdAt,value
2022-09-20T00:01:15.080Z,64.47
2022-09-20T00:03:20.678Z,64.30
2022-09-20T00:05:23.679Z,64.37
2022-09-20T00:07:25.827Z,63.85
2022-09-20T00:09:27.941Z,64.39
2022-09-20T00:11:33.061Z,64.14
2022-09-20T00:13:36.464Z,63.77
2022-09-20T00:15:43.904Z,63.96
2022-09-20T00:17:45.811Z,63.61
2022-09-20T00:19:48.047Z,63.57
2022-09-20T00:21:50.186Z,63.58
2022-09-20T00:23:53.546Z,63.53
2022-09-20T00:26:01.097Z,63.82
2022-09-20T00:28:03.547Z,63.92
2022-09-20T00:30:06.139Z,64.14
2022-09-20T00:32:08.502Z,63.89
2022-09-20T00:34:30.457Z,63.60
2022-09-20T00:36:34.687Z,63.41
2022-09-20T00:38:36.675Z,63.48
2022-09-20T00:40:39.106Z,63.56
2022-09-20T00:42:41.643Z,63.25
2022-09-20T00:45:03.681Z,62.86
2022-09-20T00:47:08.230Z,63.25
2022-09-20T00:49:21.498Z,63.67
2022-09-20T00:51:32.229Z,63.88
2022-09-20T00:53:39.712Z,63.72
2022-09-20T00:55:47.907Z,63.48
2022-09-20T00:57:50.479Z,63.46
2022-09-20T00:59:54.090Z,63.62
2022-09-20T01:05:14.617Z,63.13
2022-09-20T01:07:22.780Z,63.42
2022-09-20T01:09:25.103Z,63.55
2022-09-20T01:11:31.074Z,63.86
2022-09-20T01:13:33.024Z,64.25
2022-09-20T01:15:37.708Z,64.52
2022-09-20T01:17:45.229Z,64.92
2022-09-20T01:20:09.465Z,65.14
2022-09-20T01:22:34.794Z,65.37
2022-09-20T01:25:26.320Z,65.69
2022-09-20T01:27:48.802Z,66.37
2022-09-20T01:30:08.239Z,66.28
2022-09-20T01:32:16.730Z,65.95
2022-09-20T01:34:30.112Z,65.84
2022-09-20T01:36:48.969Z,65.85
2022-09-20T01:39:32.403Z,66.45
2022-09-20T01:41:45.874Z,66.05
2022-09-20T01:43:50.922Z,66.26
2022-09-20T01:45:56.245Z,66.21
2022-09-20T01:48:10.459Z,66.37
2022-09-20T01:50:35.562Z,66.18
2022-09-20T01:52:40.408Z,66.06
2022-09-20T01:55:14.450Z,66.77
2022-09-20T01:57:40.747Z,66.96
2022-09-20T02:00:07.294Z,67.42
2022-09-20T02:02:21.635Z,67.29
2022-09-20T02:04:42.270Z,66.95
2022-09-20T02:07:02.410Z,66.44
2022-09-20T02:09:26.816Z,66.96
2022-09-20T02:11:59.522Z,67.05
2022-09-20T02:14:42.628Z,67.24
2022-09-20T02:16:57.706Z,66.46
2022-09-20T02:19:32.972Z,66.99
2022-09-20T02:21:53.786Z,66.60
2022-09-20T02:24:13.806Z,67.01
2022-09-20T02:26:21.962Z,67.05
2022-09-20T02:28:46.773Z,66.63
2022-09-20T02:31:33.448Z,67.40
2022-09-20T02:34:01.707Z,67.35
2022-09-20T02:36:45.423Z,67.94
2022-09-20T02:39:08.551Z,67.52
2022-09-20T02:41:32.209Z,67.27
2022-09-20T02:44:05.590Z,67.28
2022-09-20T02:46:29.122Z,67.20
2022-09-20T02:48:42.989Z,67.81
2022-09-20T02:51:11.717Z,67.57
2022-09-20T02:53:45.920Z,67.18
2022-09-20T02:56:09.672Z,67.91
2022-09-20T02:58:32.757Z,67.80
2022-09-20T03:00:46.458Z,67.34
2022-09-20T03:03:13.062Z,67.45
2022-09-20T03:05:50.047Z,67.66
2022-09-20T03:08:08.867Z,67.70
2022-09-20T03:10:24.206Z,67.72
2022-09-20T03:12:51.339Z,68.09
2022-09-20T03:15:31.797Z,67.91
2022-09-20T03:18:01.535Z,67.99
2022-09-20T03:20:20.261Z,67.56
2022-09-20T03:22:52.950Z,68.02
2022-09-20T03:25:13.685Z,67.80
2022-09-20T03:27:25.818Z,67.79
2022-09-20T03:29:47.411Z,67.72
2022-09-20T03:32:09.683Z,67.41
2022-09-20T03:34:30.647Z,68.46
2022-09-20T03:36:44.763Z,67.60
2022-09-20T03:39:06.426Z,67.79
2022-09-20T03:41:27.942Z,67.52
2022-09-20T03:43:55.018Z,67.98
2022-09-20T03:46:12.728Z,68.04
2022-09-20T03:48:39.488Z,68.05
2022-09-20T03:50:58.783Z,68.20
2022-09-20T03:53:06.785Z,68.24
2022-09-20T03:55:20.645Z,68.45
2022-09-20T03:57:41.005Z,68.12
2022-09-20T04:00:03.069Z,68.68
2022-09-20T04:02:56.567Z,68.73
2022-09-20T04:05:07.797Z,68.21
2022-09-20T04:07:28.516Z,68.00
2022-09-20T04:10:10.433Z,68.60
2022-09-20T04:12:33.781Z,68.88
2022-09-20T04:14:54.547Z,68.32
2022-09-20T04:17:06.378Z,68.48
2022-09-20T04:19:40.208Z,68.45
2022-09-20T04:22:00.662Z,68.04
2022-09-20T04:24:21.679Z,68.63
2022-09-20T04:26:29.865Z,68.89
2022-09-20T04:28:52.631Z,68.59
2022-09-20T04:31:01.893Z,68.78
2022-09-20T04:33:15.418Z,68.85
2022-09-20T04:36:04.075Z,69.38
2022-09-20T04:38:11.450Z,69.02
2022-09-20T04:40:51.900Z,68.67
2022-09-20T04:43:17.746Z,69.01
2022-09-20T04:46:00.769Z,68.93
2022-09-20T04:48:11.780Z,68.55
2022-09-20T04:50:35.966Z,68.91
2022-09-20T04:53:23.570Z,69.03
2022-09-20T04:55:40.759Z,68.85
2022-09-20T04:58:17.081Z,68.99
2022-09-20T05:00:21.896Z,68.89
2022-09-20T05:02:49.108Z,68.71
2022-09-20T05:05:15.685Z,68.99
2022-09-20T05:07:47.624Z,69.04
2022-09-20T05:10:15.655Z,69.20
2022-09-20T05:12:39.345Z,69.14
2022-09-20T05:14:59.929Z,69.03
2022-09-20T05:17:07.944Z,68.74
2022-09-20T05:19:25.120Z,68.81
2022-09-20T05:21:48.118Z,68.84
2022-09-20T05:24:18.601Z,68.99
2022-09-20T05:26:46.900Z,69.10
2022-09-20T05:28:59.570Z,68.96
2022-09-20T05:31:33.996Z,69.14
2022-09-20T05:33:51.133Z,69.05
2022-09-20T05:36:24.834Z,68.62
2022-09-20T05:38:47.964Z,69.51
2022-09-20T05:40:49.982Z,68.69
2022-09-20T05:43:00.716Z,68.71
2022-09-20T05:45:25.678Z,69.34
2022-09-20T05:47:32.995Z,68.97
2022-09-20T05:49:41.360Z,69.04
2022-09-20T05:51:55.365Z,68.46
2022-09-20T05:54:23.223Z,68.40
2022-09-20T05:56:40.110Z,68.42
2022-09-20T05:59:16.243Z,68.78
2022-09-20T06:01:38.907Z,68.33
2022-09-20T06:03:49.194Z,68.29
2022-09-20T06:06:17.380Z,68.53
2022-09-20T06:08:39.196Z,68.29
2022-09-20T06:10:58.311Z,68.47
2022-09-20T06:13:00.291Z,68.16
2022-09-20T06:15:45.082Z,68.35
2022-09-20T06:17:52.740Z,67.60
2022-09-20T06:20:03.800Z,67.53
2022-09-20T06:22:32.808Z,67.38
2022-09-20T06:24:52.062Z,68.01
2022-09-20T06:26:56.781Z,67.62
2022-09-20T06:29:04.040Z,67.80
2022-09-20T06:31:09.249Z,67.41
2022-09-20T06:33:22.632Z,67.16
2022-09-20T06:35:30.378Z,66.61
2022-09-20T06:37:50.555Z,66.51
2022-09-20T06:40:49.623Z,66.41
2022-09-20T06:42:54.111Z,66.58
2022-09-20T06:44:59.878Z,66.92
2022-09-20T06:47:01.937Z,66.59
2022-09-20T06:49:04.946Z,66.24
2022-09-20T06:51:09.714Z,66.05
2022-09-20T06:53:32.588Z,65.85
2022-09-20T06:55:42.382Z,66.19
2022-09-20T06:57:48.545Z,65.33
2022-09-20T06:59:50.710Z,65.28
2022-09-20T07:01:53.745Z,65.15
2022-09-20T07:03:57.859Z,64.79
2022-09-20T07:06:00.764Z,64.81
2022-09-20T07:08:10.227Z,64.75
2022-09-20T07:10:12.677Z,64.23
2022-09-20T07:12:14.870Z,64.30
2022-09-20T07:14:16.936Z,64.41
2022-09-20T07:16:20.213Z,64.29
2022-09-20T07:18:22.535Z,64.32
2022-09-20T07:20:24.635Z,64.24
2022-09-20T07:22:28.147Z,64.30
2022-09-20T07:24:32.402Z,64.29
2022-09-20T07:26:35.386Z,64.33
2022-09-20T07:28:37.570Z,64.63
2022-09-20T07:30:39.630Z,64.87
2022-09-20T07:32:42.289Z,64.75
2022-09-20T07:34:44.340Z,64.46
2022-09-20T07:36:47.974Z,64.34
2022-09-20T07:38:53.771Z,64.53
2022-09-20T07:41:02.469Z,64.08
2022-09-20T07:43:05.080Z,64.25
2022-09-20T07:45:07.980Z,64.50
2022-09-20T07:47:11.385Z,64.67
2022-09-20T07:49:14.065Z,64.44
2022-09-20T07:51:16.116Z,64.59
2022-09-20T07:53:21.572Z,64.08
2022-09-20T07:55:23.443Z,64.60
2022-09-20T07:57:25.421Z,63.89
2022-09-20T07:59:27.566Z,63.19
2022-09-20T08:01:30.041Z,63.29
2022-09-20T08:03:33.296Z,63.19
2022-09-20T08:05:35.882Z,63.26
2022-09-20T08:07:39.563Z,63.17
2022-09-20T08:09:44.893Z,62.98
2022-09-20T08:11:47.537Z,62.85
2022-09-20T08:14:10.014Z,62.98
2022-09-20T08:16:14.310Z,63.21
2022-09-20T08:18:17.641Z,63.05
2022-09-20T08:20:20.451Z,62.45
2022-09-20T08:22:23.494Z,62.62
2022-09-20T08:24:26.916Z,62.40
2022-09-20T08:26:32.874Z,62.46
2022-09-20T08:28:34.933Z,62.29
2022-09-20T08:30:37.014Z,62.34
2022-09-20T08:32:39.421Z,62.31
2022-09-20T08:34:41.545Z,62.24
2022-09-20T08:36:51.996Z,62.36
2022-09-20T08:41:26.376Z,61.05
2022-09-20T08:43:35.251Z,61.38
2022-09-20T08:45:39.846Z,60.82
2022-09-20T08:48:00.334Z,60.56
2022-09-20T08:50:11.580Z,60.74
2022-09-20T08:52:19.687Z,61.23
2022-09-20T08:54:24.451Z,61.39
2022-09-20T08:56:34.629Z,60.10
2022-09-20T08:58:36.848Z,60.95
2022-09-20T09:00:40.520Z,61.32
2022-09-20T09:02:45.840Z,60.22
2022-09-20T09:04:52.708Z,60.46
2022-09-20T09:06:54.820Z,60.11
2022-09-20T09:09:00.141Z,60.38
2022-09-20T09:11:16.552Z,60.20
2022-09-20T09:14:04.721Z,60.25
2022-09-20T09:16:15.001Z,60.13
2022-09-20T09:18:17.900Z,60.18
2022-09-20T09:20:22.696Z,60.12
2022-09-20T09:22:29.544Z,60.41
2022-09-20T09:24:31.998Z,60.17
2022-09-20T09:26:40.412Z,59.44
2022-09-20T09:28:42.523Z,59.79
2022-09-20T09:30:49.845Z,59.41
2022-09-20T09:32:53.517Z,59.48
2022-09-20T09:34:57.493Z,59.38
2022-09-20T09:37:00.081Z,59.33
2022-09-20T09:42:26.333Z,58.49
2022-09-20T09:44:34.037Z,58.92
2022-09-20T09:46:38.424Z,59.29
2022-09-20T09:48:40.885Z,59.24
2022-09-20T09:50:45.692Z,58.86
2022-09-20T09:53:21.600Z,57.87
2022-09-20T09:55:23.788Z,58.55
2022-09-20T09:58:12.697Z,58.19
2022-09-20T10:00:27.436Z,58.05
2022-09-20T10:02:48.485Z,57.97
2022-09-20T10:04:59.795Z,58.48
2022-09-20T10:07:20.734Z,58.03
2022-09-20T10:09:32.131Z,58.09
2022-09-20T10:11:58.752Z,57.75
2022-09-20T10:14:12.794Z,56.89
2022-09-20T10:16:29.370Z,58.08
2022-09-20T10:18:50.096Z,56.89
2022-09-20T10:21:14.964Z,57.01
2022-09-20T10:24:01.904Z,56.76
2022-09-20T10:26:26.146Z,55.94
2022-09-20T10:28:28.425Z,57.64
2022-09-20T10:31:00.548Z,57.44
2022-09-20T10:33:21.563Z,57.73
2022-09-20T10:35:46.482Z,57.19
2022-09-20T10:37:51.760Z,57.12
2022-09-20T10:40:16.768Z,55.87
2022-09-20T10:43:00.372Z,56.64
2022-09-20T10:45:42.044Z,55.70
2022-09-20T10:48:03.722Z,56.85
2022-09-20T10:50:35.385Z,55.28
2022-09-20T10:53:01.624Z,55.41
2022-09-20T10:55:18.911Z,56.14
2022-09-20T10:58:07.128Z,55.68
2022-09-20T11:00:34.846Z,55.29
2022-09-20T11:03:03.155Z,54.65
2022-09-20T11:05:38.429Z,55.45
2022-09-20T11:08:26.502Z,54.40
2022-09-20T11:10:43.198Z,54.65
2022-09-20T11:12:53.936Z,55.27
2022-09-20T11:15:02.853Z,55.22
2022-09-20T11:17:14.406Z,53.46
2022-09-20T11:19:34.660Z,54.75
2022-09-20T11:21:39.872Z,54.48
2022-09-20T11:24:06.703Z,54.49
2022-09-20T11:26:17.041Z,53.87
2022-09-20T11:28:33.625Z,53.41
2022-09-20T11:30:43.642Z,54.78
2022-09-20T11:33:02.456Z,52.78
2022-09-20T11:35:39.989Z,52.55
2022-09-20T11:37:49.153Z,53.59
2022-09-20T11:39:55.091Z,53.57
2022-09-20T11:42:00.542Z,53.13
2022-09-20T11:44:16.365Z,52.61
2022-09-20T11:46:30.291Z,52.13
2022-09-20T11:48:44.898Z,52.58
2022-09-20T11:51:02.205Z,53.61
2022-09-20T11:53:24.171Z,53.34
2022-09-20T11:55:33.766Z,53.51
2022-09-20T11:57:35.887Z,53.95
2022-09-20T11:59:42.313Z,53.06
2022-09-20T12:01:45.594Z,53.15
2022-09-20T12:04:08.739Z,52.56
2022-09-20T12:06:38.588Z,52.86
2022-09-20T12:08:45.535Z,53.60
2022-09-20T12:10:58.906Z,53.84
2022-09-20T12:13:18.953Z,53.06
2022-09-20T12:15:32.315Z,54.03
2022-09-20T12:17:57.736Z,52.86
2022-09-20T12:19:59.739Z,53.71
2022-09-20T12:22:03.974Z,53.83
2022-09-20T12:24:20.255Z,52.99
2022-09-20T12:26:22.736Z,53.96
2022-09-20T12:28:34.740Z,52.77
2022-09-20T12:30:36.825Z,53.46
2022-09-20T12:32:45.246Z,52.72
2022-09-20T12:34:47.273Z,54.19
2022-09-20T12:36:55.368Z,52.56
2022-09-20T12:39:01.287Z,52.95
2022-09-20T12:41:16.184Z,51.47
2022-09-20T12:43:22.515Z,51.70
2022-09-20T12:45:24.797Z,52.26
2022-09-20T12:47:33.574Z,51.56
2022-09-20T12:50:21.959Z,51.67
2022-09-20T12:52:56.428Z,52.11
2022-09-20T12:55:10.953Z,51.05
2022-09-20T12:57:32.774Z,50.88
2022-09-20T12:59:34.964Z,51.29
2022-09-20T13:01:39.507Z,51.11
2022-09-20T13:03:45.703Z,51.42
2022-09-20T13:05:52.772Z,51.38
2022-09-20T13:08:00.522Z,51.79
2022-09-20T13:10:15.309Z,51.19
2022-09-20T13:12:18.085Z,51.45
2022-09-20T13:14:32.714Z,51.85
2022-09-20T13:16:37.754Z,52.21
2022-09-20T13:18:41.319Z,52.11
2022-09-20T13:20:44.571Z,52.10
2022-09-20T13:22:47.814Z,52.54
2022-09-20T13:24:55.234Z,52.64
2022-09-20T13:27:06.668Z,52.47
2022-09-20T13:29:19.508Z,52.41
2022-09-20T13:31:21.713Z,52.60
2022-09-20T13:33:25.752Z,52.57
2022-09-20T13:35:31.842Z,52.35
2022-09-20T13:37:35.169Z,52.34
2022-09-20T13:39:37.519Z,52.10
2022-09-20T13:41:46.176Z,52.85
2022-09-20T13:43:50.211Z,52.30
2022-09-20T13:46:00.681Z,51.94
2022-09-20T13:48:03.253Z,52.19
2022-09-20T13:50:23.267Z,51.84
2022-09-20T13:52:29.075Z,52.22
2022-09-20T13:54:33.337Z,51.79
2022-09-20T13:56:35.771Z,51.88
2022-09-20T13:58:38.645Z,51.86
2022-09-20T14:00:47.687Z,49.98
2022-09-20T14:02:50.554Z,51.10
2022-09-20T14:04:56.367Z,50.99
2022-09-20T14:07:02.635Z,50.53
2022-09-20T14:09:11.434Z,50.05
2022-09-20T14:11:33.866Z,50.34
2022-09-20T14:13:40.869Z,50.80
2022-09-20T14:15:46.704Z,50.30
2022-09-20T14:17:49.149Z,51.31
2022-09-20T14:19:54.702Z,51.19
2022-09-20T14:21:59.598Z,50.76
2022-09-20T14:24:28.909Z,49.12
2022-09-20T14:26:34.946Z,50.09
2022-09-20T14:28:36.983Z,50.60
2022-09-20T14:30:39.118Z,50.47
2022-09-20T14:32:51.893Z,50.70
2022-09-20T14:34:56.596Z,51.24
2022-09-20T14:37:37.380Z,50.99
2022-09-20T14:39:53.377Z,50.99
2022-09-20T14:41:55.821Z,51.56
2022-09-20T14:44:00.883Z,51.43
2022-09-20T14:46:08.243Z,50.62
2022-09-20T14:48:11.313Z,50.58
2022-09-20T14:50:24.152Z,49.80
2022-09-20T14:52:26.891Z,49.95
2022-09-20T14:54:31.338Z,49.91
2022-09-20T14:56:36.936Z,50.04
2022-09-20T14:59:05.842Z,49.74
2022-09-20T15:01:26.068Z,50.41
2022-09-20T15:03:34.332Z,50.36
2022-09-20T15:05:37.552Z,50.73
2022-09-20T15:07:41.932Z,50.69
2022-09-20T15:09:44.506Z,50.53
2022-09-20T15:11:47.272Z,50.37
2022-09-20T15:13:49.397Z,50.61
2022-09-20T15:15:53.887Z,50.71
2022-09-20T15:17:55.989Z,50.47
2022-09-20T15:19:58.869Z,50.60
2022-09-20T15:22:00.923Z,50.52
2022-09-20T15:24:03.308Z,50.50
2022-09-20T15:26:06.163Z,50.52
2022-09-20T15:28:15.935Z,50.34
2022-09-20T15:30:22.588Z,50.81
2022-09-20T15:32:24.818Z,50.81
2022-09-20T15:34:27.059Z,50.30
2022-09-20T15:36:32.131Z,50.53
2022-09-20T15:38:34.873Z,50.69
2022-09-20T15:40:48.560Z,51.16
2022-09-20T15:42:56.214Z,51.62
2022-09-20T15:44:58.326Z,51.42
2022-09-20T15:47:00.520Z,51.29
2022-09-20T15:49:03.638Z,51.57
2022-09-20T15:51:08.178Z,51.54
2022-09-20T15:53:12.106Z,51.64
2022-09-20T15:55:14.571Z,51.66
2022-09-20T15:57:16.704Z,51.78
2022-09-20T15:59:24.647Z,51.55
2022-09-20T16:01:39.901Z,51.83
2022-09-20T16:03:46.856Z,52.02
2022-09-20T16:06:04.102Z,51.41
2022-09-20T16:08:06.896Z,51.87
2022-09-20T16:10:09.378Z,51.71
2022-09-20T16:12:11.496Z,52.09
2022-09-20T16:14:14.002Z,52.60
2022-09-20T16:16:17.886Z,52.15
2022-09-20T16:18:38.864Z,52.23
2022-09-20T16:20:41.259Z,52.34
2022-09-20T16:22:43.376Z,52.53
2022-09-20T16:24:48.418Z,52.25
2022-09-20T16:26:50.597Z,52.28
2022-09-20T16:28:55.870Z,52.62
2022-09-20T16:30:59.819Z,52.93
2022-09-20T16:33:07.290Z,53.10
2022-09-20T16:35:09.533Z,52.46
2022-09-20T16:37:17.083Z,52.65
2022-09-20T16:39:20.687Z,52.81
2022-09-20T16:41:24.966Z,53.14
2022-09-20T16:43:27.004Z,52.72
2022-09-20T16:45:29.501Z,52.55
2022-09-20T16:47:31.698Z,52.19
2022-09-20T16:49:36.306Z,52.27
2022-09-20T16:51:40.279Z,52.17
2022-09-20T16:53:43.832Z,52.73
2022-09-20T16:55:46.174Z,52.35
2022-09-20T16:57:51.901Z,52.11
2022-09-20T16:59:55.952Z,52.88
2022-09-20T17:01:58.157Z,52.65
2022-09-20T17:04:01.346Z,52.62
2022-09-20T17:06:06.218Z,52.10
2022-09-20T17:08:12.090Z,52.44
2022-09-20T17:10:14.304Z,52.50
2022-09-20T17:12:24.109Z,53.48
2022-09-20T17:14:26.497Z,53.18
2022-09-20T17:16:31.550Z,52.87
2022-09-20T17:18:34.472Z,53.34
2022-09-20T17:20:36.559Z,53.94
2022-09-20T17:22:38.758Z,53.35
2022-09-20T17:24:40.861Z,53.81
2022-09-20T17:26:45.618Z,53.29
2022-09-20T17:28:51.680Z,54.28
2022-09-20T17:31:00.795Z,54.80
2022-09-20T17:33:03.115Z,54.71
2022-09-20T17:35:06.066Z,54.39
2022-09-20T17:37:08.447Z,54.91
2022-09-20T17:39:13.048Z,54.91
2022-09-20T17:41:17.824Z,55.25
2022-09-20T17:43:19.994Z,55.70
2022-09-20T17:45:22.281Z,54.69
2022-09-20T17:47:25.176Z,54.98
2022-09-20T17:49:27.946Z,54.88
2022-09-20T17:51:32.852Z,54.65
2022-09-20T17:53:38.856Z,54.71
2022-09-20T17:55:41.157Z,54.26
2022-09-20T17:57:43.582Z,55.60
2022-09-20T17:59:46.010Z,54.78
2022-09-20T18:01:52.418Z,54.69
2022-09-20T18:03:57.514Z,55.38
2022-09-20T18:05:59.881Z,55.48
2022-09-20T18:08:03.462Z,55.24
2022-09-20T18:10:06.527Z,55.84
2022-09-20T18:12:08.742Z,55.89
2022-09-20T18:14:11.393Z,56.58
2022-09-20T18:16:16.188Z,56.50
2022-09-20T18:18:20.928Z,56.78
2022-09-20T18:20:23.159Z,55.98
2022-09-20T18:22:25.702Z,56.07
2022-09-20T18:24:27.895Z,56.28
2022-09-20T18:26:32.495Z,56.64
2022-09-20T18:28:34.769Z,57.14
2022-09-20T18:30:37.121Z,56.89
2022-09-20T18:32:43.267Z,57.28
2022-09-20T18:34:48.005Z,57.49
2022-09-20T18:36:57.765Z,58.51
2022-09-20T18:39:03.411Z,58.13
2022-09-20T18:41:06.135Z,59.07
2022-09-20T18:43:08.278Z,59.01
2022-09-20T18:45:10.978Z,60.74
2022-09-20T18:47:13.238Z,60.43
2022-09-20T18:49:18.945Z,60.96
2022-09-20T18:51:22.268Z,60.52
2022-09-20T18:53:33.369Z,61.08
2022-09-20T18:55:37.136Z,60.09
2022-09-20T18:57:39.494Z,60.51
2022-09-20T18:59:49.722Z,59.65
2022-09-20T19:02:17.601Z,59.23
2022-09-20T19:04:49.492Z,59.74
2022-09-20T19:07:08.148Z,59.01
2022-09-20T19:09:20.692Z,59.11
2022-09-20T19:11:43.763Z,59.82
2022-09-20T19:14:07.424Z,60.27
2022-09-20T19:16:21.306Z,60.19
2022-09-20T19:18:51.511Z,60.15
2022-09-20T19:21:13.415Z,60.07
2022-09-20T19:23:57.953Z,59.76
2022-09-20T19:26:09.143Z,59.95
2022-09-20T19:28:13.449Z,59.58
2022-09-20T19:30:16.370Z,59.60
2022-09-20T19:32:21.510Z,59.63
2022-09-20T19:34:32.271Z,60.35
2022-09-20T19:36:39.867Z,60.18
2022-09-20T19:39:08.222Z,61.04
2022-09-20T19:41:34.118Z,60.71
2022-09-20T19:43:46.262Z,60.13
2022-09-20T19:46:13.649Z,60.94
2022-09-20T19:48:39.900Z,60.83
2022-09-20T19:50:46.541Z,60.21
2022-09-20T19:52:50.335Z,60.12
2022-09-20T19:54:53.261Z,60.13
2022-09-20T19:56:58.034Z,60.00
2022-09-20T19:59:00.460Z,60.31
2022-09-20T20:01:03.008Z,60.60
2022-09-20T20:03:05.433Z,60.63
2022-09-20T20:05:09.084Z,61.01
2022-09-20T20:07:42.562Z,61.63
2022-09-20T20:09:56.559Z,61.77
2022-09-20T20:12:03.291Z,61.19
2022-09-20T20:14:14.667Z,61.67
2022-09-20T20:16:25.507Z,61.50
2022-09-20T20:18:37.719Z,62.28
2022-09-20T20:20:48.095Z,62.14
2022-09-20T20:23:07.517Z,63.04
2022-09-20T20:25:37.802Z,62.66
2022-09-20T20:27:40.362Z,62.41
2022-09-20T20:29:43.541Z,62.72
2022-09-20T20:31:46.296Z,62.54
2022-09-20T20:33:49.106Z,62.95
2022-09-20T20:35:58.403Z,62.94
2022-09-20T20:38:00.679Z,62.43
2022-09-20T20:40:03.502Z,62.10
2022-09-20T20:42:10.228Z,62.47
2022-09-20T20:44:12.639Z,62.59
2022-09-20T20:46:18.781Z,62.80
2022-09-20T20:48:21.780Z,62.62
2022-09-20T20:50:24.984Z,62.62
2022-09-20T20:52:27.373Z,62.64
2022-09-20T20:54:29.703Z,62.54
2022-09-20T20:56:33.351Z,63.10
2022-09-20T20:58:38.150Z,62.90
2022-09-20T21:00:40.233Z,62.96
2022-09-20T21:02:42.516Z,62.67
2022-09-20T21:04:44.757Z,63.20
2022-09-20T21:06:50.048Z,62.86
2022-09-20T21:08:52.721Z,62.50
2022-09-20T21:11:07.807Z,62.70
2022-09-20T21:13:09.730Z,62.25
2022-09-20T21:15:12.138Z,62.33
2022-09-20T21:17:14.319Z,62.57
2022-09-20T21:19:19.364Z,62.68
2022-09-20T21:21:26.947Z,62.85
2022-09-20T21:23:34.255Z,62.89
2022-09-20T21:25:38.111Z,63.15
2022-09-20T21:27:40.263Z,62.66
2022-09-20T21:29:42.585Z,62.95
2022-09-20T21:31:46.952Z,62.76
2022-09-20T21:33:49.528Z,63.19
2022-09-20T21:35:52.576Z,63.02
2022-09-20T21:37:54.798Z,63.30
2022-09-20T21:39:57.416Z,63.52
2022-09-20T21:41:59.804Z,63.80
2022-09-20T21:44:03.531Z,63.68
2022-09-20T21:46:05.585Z,63.53
2022-09-20T21:48:08.501Z,63.45
2022-09-20T21:50:10.533Z,63.74
2022-09-20T21:52:12.611Z,63.17
2022-09-20T21:54:15.070Z,62.46
2022-09-20T21:56:17.840Z,63.09
2022-09-20T21:58:19.879Z,63.01
2022-09-20T22:00:22.413Z,63.29
2022-09-20T22:02:24.361Z,62.43
2022-09-20T22:04:29.345Z,62.66
2022-09-20T22:06:34.075Z,62.53
2022-09-20T22:08:38.015Z,63.11
2022-09-20T22:10:40.368Z,63.40
2022-09-20T22:12:44.506Z,63.92
2022-09-20T22:14:46.887Z,63.48
2022-09-20T22:16:51.506Z,63.84
2022-09-20T22:18:57.243Z,63.61
2022-09-20T22:21:04.731Z,63.97
2022-09-20T22:23:07.247Z,63.76
2022-09-20T22:25:09.648Z,64.11
2022-09-20T22:27:11.840Z,64.31
2022-09-20T22:29:14.614Z,64.36
2022-09-20T22:31:20.059Z,64.17
2022-09-20T22:33:25.279Z,64.36
2022-09-20T22:35:28.171Z,64.33
2022-09-20T22:37:30.312Z,64.13
2022-09-20T22:39:32.512Z,63.69
2022-09-20T22:41:36.038Z,63.67
2022-09-20T22:43:38.712Z,63.39
2022-09-20T22:45:40.807Z,62.91
2022-09-20T22:47:44.362Z,62.68
2022-09-20T22:49:46.598Z,63.26
2022-09-20T22:51:48.790Z,63.14
2022-09-20T22:53:52.772Z,63.23
2022-09-20T22:56:01.461Z,62.94
2022-09-20T22:58:03.636Z,62.96
2022-09-20T23:00:06.256Z,62.81
2022-09-20T23:02:08.345Z,62.33
2022-09-20T23:04:13.093Z,62.18
2022-09-20T23:06:17.903Z,62.73
2022-09-20T23:08:22.608Z,62.58
2022-09-20T23:10:24.651Z,62.42
2022-09-20T23:12:26.996Z,62.39
2022-09-20T23:14:28.970Z,62.33
2022-09-20T23:16:35.807Z,62.45
2022-09-20T23:18:38.137Z,62.30
2022-09-20T23:20:40.297Z,62.17
2022-09-20T23:22:42.401Z,62.85
2022-09-20T23:24:44.726Z,62.89
2022-09-20T23:26:47.027Z,63.37
2022-09-20T23:28:56.942Z,64.20
2022-09-20T23:31:04.899Z,64.66
2022-09-20T23:33:07.954Z,64.65
2022-09-20T23:35:10.196Z,64.56
2022-09-20T23:37:13.069Z,64.32
2022-09-20T23:39:15.907Z,64.45
2022-09-20T23:41:20.420Z,64.89
2022-09-20T23:43:22.845Z,64.25
2022-09-20T23:45:25.039Z,64.25
2022-09-20T23:47:28.100Z,64.17
2022-09-20T23:49:30.521Z,64.02
2022-09-20T23:51:32.836Z,64.22
2022-09-20T23:53:35.722Z,63.71
2022-09-20T23:55:38.117Z,63.84
2022-09-20T23:57:40.125Z,63.72
2022-09-20T23:59:42.254Z,63.58
